Jepson Prairie Reserve, California Weather observations

Data are for 10 minute period ending at time listed.
 Day   Time   Solar   Ave.   Ave.  Ave.  Vector  Max.   Baro.   Total    
  of    of     Rad.   Air    Rel.  Wind   Wind   Wind  Press.  Precip.   
Year   Day            Temp.  Hum.  Speed  Dir.   Gust                    
2016   (PST)  Kw/m2    F      %     mph   deg.    mph    mb.     in.     
-------------------------------------------------------------------------
 337   17:10   0.00   55.8    40   15.8   321    20.4   1019.6    0.00 
 337   17:20   0.00   53.8    44   11.3   314    16.5   1019.6    0.00 
 337   17:30   0.00   52.3    47   12.5   312    17.1   1019.6    0.00 
 337   17:40   0.00   54.3    42   15.1   316    19.4   1019.6    0.00 
 337   17:50   0.00   53.9    43   11.9   318    14.7   1019.6    0.00 
 337   18:00   0.00   53.6    43   10.8   312    19.4   1019.6    0.00 
 337   18:10   0.00   53.8    43    7.5   309    14.2   1019.6    0.00 
 337   18:20   0.00   52.6    46    9.0   308    15.9   1019.6    0.00 
 337   18:30   0.00   52.5    46   14.5   311    19.6   1019.6    0.00 
 337   18:40   0.00   52.6    46   15.5   311    18.6   1019.3    0.00 
 337   18:50   0.00   52.2    47   14.7   309    19.1   1019.6    0.00 
 337   19:00   0.00   52.4    46   15.2   310    18.7   1019.6    0.00 
 337   19:10   0.00   53.2    44   16.5   310    21.8   1020.0    0.00 
 337   19:20   0.00   53.7    42   16.8   312    20.8   1020.0    0.00 
 337   19:30   0.00   53.7    42   15.8   315    19.4   1020.0    0.00 
 337   19:40   0.00   53.6    42   14.2   315    18.9   1020.0    0.00 
 337   19:50   0.00   53.3    42   14.0   313    17.8   1019.6    0.00 
 337   20:00   0.00   53.3    42   14.7   314    18.9   1019.6    0.00 
 337   20:10   0.00   53.5    42   14.9   320    18.3   1019.6    0.00 
 337   20:20   0.00   53.9    40   16.4   321    20.8   1019.6    0.00 
 337   20:30   0.00   54.3    40   17.5   319    22.3   1019.6    0.00 
 337   20:40   0.00   54.6    39   18.5   319    24.0   1019.6    0.00 
 337   20:50   0.00   55.2    38   19.0   320    23.4   1020.0    0.00 
 337   21:00   0.00   55.9    36   19.3   321    25.1   1020.0    0.00 
 337   21:10   0.00   55.9    36   18.1   322    23.7   1020.0    0.00 
 337   21:20   0.00   55.8    36   18.8   323    24.5   1019.6    0.00 
 337   21:30   0.00   55.5    37   18.4   322    23.2   1019.6    0.00 
 337   21:40   0.00   55.2    37   17.9   321    22.1   1019.6    0.00 
 337   21:50   0.00   55.2    38   16.2   321    21.3   1019.3    0.00 
 337   22:00   0.00   54.9    39   14.6   336    20.6   1019.6    0.00 
 337   22:10   0.00   53.6    42   11.3   350    16.5   1019.6    0.00 
 337   22:20   0.00   50.7    49    9.0   348    12.2   1020.0    0.00 
 337   22:30   0.00   51.6    46   10.2   343    13.5   1020.0    0.00 
 337   22:40   0.00   50.1    50    8.6   359    12.9   1020.3    0.00 
 337   22:50   0.00   47.6    57    8.0    17    10.5   1020.7    0.00 
 337   23:00   0.00   48.1    56    8.2     5    10.7   1020.7    0.00 
 337   23:10   0.00   46.7    59    6.4     7     8.0   1020.7    0.00 
 337   23:20   0.00   45.5    62    6.4   355     7.7   1020.7    0.00 
 337   23:30   0.00   45.4    61    4.1   312     8.2   1020.7    0.00 
 337   23:40   0.00   44.2    64    3.5   226     5.0   1021.0    0.00 
 337   23:50   0.00   42.5    69    2.5   207     3.7   1021.0    0.00 
 338    0:00   0.00   45.7    60    1.7   139     2.8   1021.0    0.00 
 338    0:10   0.00   46.3    60    1.9   108     2.6   1021.3    0.00 
 338    0:20   0.00   47.0    58    2.9    98     4.7   1021.3    0.00 
 338    0:30   0.00   44.4    67    3.9    93     5.2   1021.3    0.00 
 338    0:40   0.00   48.1    67    3.4    29     5.3   1021.3    0.00 
 338    0:50   0.00   49.8    65    5.0    28     6.1   1021.3    0.00 
 338    1:00   0.00   49.3    70    6.0    36     7.6   1021.3    0.00 
 338    1:10   0.00   47.0    73    4.8    66     6.0   1021.3    0.00 
 338    1:20   0.00   48.6    78    3.1   100     5.6   1021.7    0.00 
 338    1:30   0.00   46.7    80    4.3   105     6.4   1021.7    0.00 
 338    1:40   0.00   45.3    83    5.1   175     8.5   1021.7    0.00 
 338    1:50   0.00   43.4    78    4.3   164     5.3   1021.7    0.00 
 338    2:00   0.00   42.8    77    4.2   179     5.7   1021.7    0.00 
 338    2:10   0.00   46.1    80    3.9   189     5.5   1022.0    0.00 
 338    2:20   0.00   46.5    74    3.4   177     4.4   1022.0    0.00 
 338    2:30   0.00   48.3    71    3.4   190     5.8   1022.0    0.00 
 338    2:40   0.00   47.5    68    1.2   189     3.5   1022.0    0.00 
 338    2:50   0.00   46.7    70    1.1   106     2.4   1022.0    0.00 
 338    3:00   0.00   46.6    71    2.4    70     4.6   1022.0    0.00 
 338    3:10   0.00   46.5    72    1.9    12     3.8   1022.0    0.00 
 338    3:20   0.00   45.3    74    0.8   309     3.4   1022.0    0.00 
 338    3:30   0.00   44.8    75    1.1   258     2.9   1021.7    0.00 
 338    3:40   0.00   43.1    81    2.0   232     3.4   1022.0    0.00 
 338    3:50   0.00   40.4    84    1.8   255     2.3   1022.0    0.00 
 338    4:00   0.00   42.5    83    2.4   292     3.5   1022.0    0.00 
 338    4:10   0.00   42.6    83    2.8   283     5.0   1022.0    0.00 
 338    4:20   0.00   42.3    86    4.8   298     5.5   1022.0    0.00 
 338    4:30   0.00   44.3    86    4.8   300     5.3   1022.0    0.00 
 338    4:40   0.00   43.3    84    5.1   289     5.9   1022.0    0.00 
 338    4:50   0.00   42.4    82    5.8   291     6.7   1022.4    0.00 
 338    5:00   0.00   41.6    86    4.2   310     6.4   1022.4    0.00 
 338    5:10   0.00   39.3    89    4.8   339     6.1   1022.7    0.00 
 338    5:20   0.00   37.7    91    1.7   182     4.0   1022.7    0.00 
 338    5:30   0.00   37.0    91    1.8   177     3.7   1022.7    0.00 
 338    5:40   0.00   36.3    91    2.0   185     3.1   1023.0    0.00 
 338    5:50   0.00   36.4    93    1.3   215     2.1   1023.0    0.00 
 338    6:00   0.00   35.2    92    3.3   218     5.3   1023.0    0.00 
 338    6:10   0.00   34.5    93    5.3   226     7.5   1023.0    0.00 
 338    6:20   0.00   34.6    94    4.2   233     6.0   1023.0    0.00 
 338    6:30   0.00   35.9    95    1.8    80     3.9   1023.4    0.00 
 338    6:40   0.00   34.9    95    1.5   108     3.6   1023.4    0.00 
 338    6:50   0.00   33.5    95    0.1   247     0.9   1023.4    0.00 
 338    7:00   0.00   34.1    94    0.0   247     0.7   1023.0    0.00 
 338    7:10   0.00   35.3    95    2.4   293     3.4   1023.0    0.00 
 338    7:20   0.01   36.5    94    3.5   338     3.8   1023.0    0.00 
 338    7:30   0.03   37.0    92    3.4   315     3.8   1023.4    0.00 
 338    7:40   0.05   37.8    90    3.7   354     4.6   1023.4    0.00 
 338    7:50   0.07   38.6    90    3.8   355     4.8   1023.4    0.00 
 338    8:00   0.09   39.9    90    3.8   358     4.6   1023.4    0.00 
 338    8:10   0.11   40.6    89    3.9     8     4.7   1023.4    0.00 
 338    8:20   0.14   41.4    90    4.0    11     5.0   1023.7    0.00 
 338    8:30   0.16   41.8    91    3.1     2     3.9   1023.7    0.00 
 338    8:40   0.18   43.2    90    1.1   331     2.4   1023.7    0.00 
 338    8:50   0.21   44.6    88    2.5   348     4.2   1023.7    0.00 
 338    9:00   0.23   45.3    86    3.5   345     5.6   1023.7    0.00 
 338    9:10   0.26   46.1    83    4.8   343     6.4   1023.7    0.00 
 338    9:20   0.28   47.0    81    4.5   355     6.3   1023.7    0.00 
 338    9:30   0.30   47.3    80    4.3   344     5.9   1023.7    0.00 
 338    9:40   0.32   47.8    78    3.6   342     5.6   1023.7    0.00 
 338    9:50   0.34   48.5    77    3.1     3     4.7   1023.7    0.00 
 338   10:00   0.36   49.1    77    3.2    27     4.9   1023.7    0.00 
 338   10:10   0.39   49.7    76    2.3    30     3.9   1023.7    0.00 
 338   10:20   0.38   50.2    74    3.0    29     4.9   1023.4    0.00 
 338   10:30   0.38   50.5    74    3.5    36     5.3   1023.4    0.00 
 338   10:40   0.39   51.1    70    3.4    12     6.8   1023.4    0.00 
 338   10:50   0.39   51.8    67    4.8   337     7.0   1023.4    0.00 
 338   11:00   0.43   52.9    70    3.6    25     5.9   1023.4    0.00 
 338   11:10   0.45   54.0    68    4.4     6     7.9   1023.0    0.00 
 338   11:20   0.45   55.1    63    4.7   346     7.2   1022.7    0.00 
 338   11:30   0.46   54.4    62    5.7   334     8.9   1022.7    0.00 
 338   11:40   0.46   53.9    61    5.9   331    10.0   1022.4    0.00 
 338   11:50   0.46   53.8    60    6.0   342     9.4   1022.4    0.00 
 338   12:00   0.46   53.9    59    6.2   335     9.9   1022.0    0.00 
 338   12:10   0.46   54.4    59    5.4   351     7.9   1022.0    0.00 
 338   12:20   0.46   55.0    57    8.2   344    11.0   1021.7    0.00 
 338   12:30   0.46   55.6    56    8.7   343    13.5   1021.7    0.00 
 338   12:40   0.45   56.3    55    8.0   342    11.0   1021.7    0.00 
 338   12:50   0.45   57.2    52    8.1   345    12.3   1021.3    0.00 
 338   13:00   0.44   57.8    50    9.2   343    13.4   1021.3    0.00 
 338   13:10   0.42   58.6    50    7.7   348    11.8   1021.0    0.00 
 338   13:20   0.41   59.2    51    7.5   348    12.4   1021.0    0.00 
 338   13:30   0.41   60.4    50    6.1   334    10.8   1021.0    0.00 
 338   13:40   0.39   63.3    52    5.7   340     8.8   1020.7    0.00 
 338   13:50   0.38   64.8    53    4.8     6     8.8   1020.7    0.00 
 338   14:00   0.36   63.4    51    6.2     2     9.8   1020.3    0.00 
 338   14:10   0.34   64.6    51    6.4     8     9.3   1020.3    0.00 
 338   14:20   0.32   64.3    50    6.6   355     9.9   1020.3    0.00 
 338   14:30   0.30   63.2    50    5.3    15     8.1   1020.3    0.00 
 338   14:40   0.28   63.0    50    6.2    15     9.3   1020.3    0.00 
 338   14:50   0.25   62.5    52    5.2    49     6.9   1020.3    0.00 
 338   15:00   0.23   62.3    53    7.4    48     9.9   1020.3    0.00 
 338   15:10   0.21   61.3    56    8.4    66    10.3   1020.3    0.00 
 338   15:20   0.18   60.9    57    7.5    59     9.2   1020.3    0.00 
 338   15:30   0.16   60.5    57    6.9    55     8.8   1020.3    0.00 
 338   15:40   0.11   59.8    59    7.0    55     8.6   1020.3    0.00 
 338   15:50   0.11   59.5    60    5.4    56     6.9   1020.0    0.00 
 338   16:00   0.09   59.2    62    4.9    60     6.7   1020.0    0.00 
 338   16:10   0.07   58.7    64    4.2    67     4.7   1020.0    0.00 
 338   16:20   0.06   57.9    66    3.6    76     4.4   1020.0    0.00 
 338   16:30   0.03   57.3    66    3.5    87     3.9   1020.0    0.00 
 338   16:40   0.01   55.6    69    4.0   116     5.1   1019.6    0.00 
 338   16:50   0.01   53.5    75    4.0   121     4.7   1019.6    0.00 
 338   17:00   0.00   52.7    74    4.3   132     4.7   1019.6    0.00 

Return to Jepson Prairie Reserve graphs page.


Western Regional Climate Center,wrcc@dri.edu